sensor_id;sensor_type;location;lat;lon;timestamp;P1;durP1;ratioP1;P2;durP2;ratioP2
47219;SDS011;32961;51.936;4.788;2023-12-22T00:00:55;19.63;;;3.10;;
47219;SDS011;32961;51.936;4.788;2023-12-22T00:03:23;18.23;;;3.17;;
47219;SDS011;32961;51.936;4.788;2023-12-22T00:05:51;27.73;;;3.45;;
47219;SDS011;32961;51.936;4.788;2023-12-22T00:08:21;25.13;;;3.40;;
47219;SDS011;32961;51.936;4.788;2023-12-22T00:10:49;23.00;;;3.22;;
47219;SDS011;32961;51.936;4.788;2023-12-22T00:13:17;23.63;;;3.42;;
47219;SDS011;32961;51.936;4.788;2023-12-22T00:15:45;23.67;;;3.65;;
47219;SDS011;32961;51.936;4.788;2023-12-22T00:18:13;24.33;;;4.65;;
47219;SDS011;32961;51.936;4.788;2023-12-22T00:20:41;23.00;;;3.38;;
47219;SDS011;32961;51.936;4.788;2023-12-22T00:23:09;28.33;;;4.05;;
47219;SDS011;32961;51.936;4.788;2023-12-22T00:25:38;27.05;;;4.50;;
47219;SDS011;32961;51.936;4.788;2023-12-22T00:28:06;38.03;;;7.60;;
47219;SDS011;32961;51.936;4.788;2023-12-22T00:30:34;27.13;;;4.15;;
47219;SDS011;32961;51.936;4.788;2023-12-22T00:33:01;29.00;;;4.20;;
47219;SDS011;32961;51.936;4.788;2023-12-22T00:35:30;27.63;;;5.03;;
47219;SDS011;32961;51.936;4.788;2023-12-22T00:37:58;26.92;;;4.47;;
47219;SDS011;32961;51.936;4.788;2023-12-22T00:40:26;32.20;;;4.88;;
47219;SDS011;32961;51.936;4.788;2023-12-22T00:42:55;26.98;;;3.88;;
47219;SDS011;32961;51.936;4.788;2023-12-22T00:45:23;21.52;;;3.60;;
47219;SDS011;32961;51.936;4.788;2023-12-22T00:47:51;18.77;;;3.58;;
47219;SDS011;32961;51.936;4.788;2023-12-22T00:50:19;21.33;;;3.10;;
47219;SDS011;32961;51.936;4.788;2023-12-22T00:52:47;22.92;;;4.55;;
47219;SDS011;32961;51.936;4.788;2023-12-22T00:55:15;21.50;;;3.53;;
47219;SDS011;32961;51.936;4.788;2023-12-22T00:57:42;16.67;;;3.20;;
47219;SDS011;32961;51.936;4.788;2023-12-22T01:00:13;22.08;;;3.72;;
47219;SDS011;32961;51.936;4.788;2023-12-22T01:02:41;20.40;;;3.60;;
47219;SDS011;32961;51.936;4.788;2023-12-22T01:05:10;18.75;;;2.88;;
47219;SDS011;32961;51.936;4.788;2023-12-22T01:07:38;20.17;;;2.97;;
47219;SDS011;32961;51.936;4.788;2023-12-22T01:10:06;16.73;;;2.65;;
47219;SDS011;32961;51.936;4.788;2023-12-22T01:12:35;22.70;;;2.88;;
47219;SDS011;32961;51.936;4.788;2023-12-22T01:15:04;16.92;;;3.00;;
47219;SDS011;32961;51.936;4.788;2023-12-22T01:17:34;16.38;;;3.45;;
47219;SDS011;32961;51.936;4.788;2023-12-22T01:20:02;24.38;;;5.22;;
47219;SDS011;32961;51.936;4.788;2023-12-22T01:22:30;21.63;;;3.10;;
47219;SDS011;32961;51.936;4.788;2023-12-22T01:24:59;23.02;;;3.80;;
47219;SDS011;32961;51.936;4.788;2023-12-22T01:27:27;21.55;;;3.30;;
47219;SDS011;32961;51.936;4.788;2023-12-22T01:29:55;23.08;;;3.28;;
47219;SDS011;32961;51.936;4.788;2023-12-22T01:32:23;26.20;;;3.72;;
47219;SDS011;32961;51.936;4.788;2023-12-22T01:34:52;19.40;;;3.20;;
47219;SDS011;32961;51.936;4.788;2023-12-22T01:37:20;28.80;;;5.82;;
47219;SDS011;32961;51.936;4.788;2023-12-22T01:39:49;20.65;;;3.47;;
47219;SDS011;32961;51.936;4.788;2023-12-22T01:42:17;18.02;;;2.97;;
47219;SDS011;32961;51.936;4.788;2023-12-22T01:44:45;18.92;;;2.97;;
47219;SDS011;32961;51.936;4.788;2023-12-22T01:47:13;17.25;;;3.35;;
47219;SDS011;32961;51.936;4.788;2023-12-22T01:49:42;21.17;;;3.15;;
47219;SDS011;32961;51.936;4.788;2023-12-22T01:52:11;17.38;;;3.08;;
47219;SDS011;32961;51.936;4.788;2023-12-22T01:54:39;26.13;;;3.85;;
47219;SDS011;32961;51.936;4.788;2023-12-22T01:57:10;24.27;;;3.45;;
47219;SDS011;32961;51.936;4.788;2023-12-22T01:59:44;11.55;;;2.53;;
47219;SDS011;32961;51.936;4.788;2023-12-22T02:02:12;21.52;;;3.47;;
47219;SDS011;32961;51.936;4.788;2023-12-22T02:04:40;27.80;;;4.28;;
47219;SDS011;32961;51.936;4.788;2023-12-22T02:07:08;19.42;;;4.55;;
47219;SDS011;32961;51.936;4.788;2023-12-22T02:09:38;20.27;;;3.92;;
47219;SDS011;32961;51.936;4.788;2023-12-22T02:12:06;23.33;;;3.78;;
47219;SDS011;32961;51.936;4.788;2023-12-22T02:14:34;17.05;;;4.60;;
47219;SDS011;32961;51.936;4.788;2023-12-22T02:17:06;21.13;;;3.55;;
47219;SDS011;32961;51.936;4.788;2023-12-22T02:19:40;21.98;;;3.40;;
47219;SDS011;32961;51.936;4.788;2023-12-22T02:22:11;19.23;;;3.22;;
47219;SDS011;32961;51.936;4.788;2023-12-22T02:24:41;18.95;;;3.83;;
47219;SDS011;32961;51.936;4.788;2023-12-22T02:27:11;28.38;;;5.80;;
47219;SDS011;32961;51.936;4.788;2023-12-22T02:29:49;16.98;;;3.72;;
47219;SDS011;32961;51.936;4.788;2023-12-22T02:32:22;17.00;;;3.83;;
47219;SDS011;32961;51.936;4.788;2023-12-22T02:34:55;25.75;;;3.72;;
47219;SDS011;32961;51.936;4.788;2023-12-22T02:37:25;17.23;;;3.17;;
47219;SDS011;32961;51.936;4.788;2023-12-22T02:39:56;18.80;;;3.47;;
47219;SDS011;32961;51.936;4.788;2023-12-22T02:42:24;18.40;;;4.13;;
47219;SDS011;32961;51.936;4.788;2023-12-22T02:44:56;15.57;;;3.97;;
47219;SDS011;32961;51.936;4.788;2023-12-22T02:47:25;18.45;;;3.28;;
47219;SDS011;32961;51.936;4.788;2023-12-22T02:49:54;17.00;;;3.50;;
47219;SDS011;32961;51.936;4.788;2023-12-22T02:52:22;12.38;;;2.50;;
47219;SDS011;32961;51.936;4.788;2023-12-22T02:54:50;20.40;;;3.08;;
47219;SDS011;32961;51.936;4.788;2023-12-22T02:57:19;16.42;;;2.75;;
47219;SDS011;32961;51.936;4.788;2023-12-22T02:59:47;22.73;;;3.83;;
47219;SDS011;32961;51.936;4.788;2023-12-22T03:02:15;18.70;;;3.95;;
47219;SDS011;32961;51.936;4.788;2023-12-22T03:04:43;14.70;;;3.33;;
47219;SDS011;32961;51.936;4.788;2023-12-22T03:07:12;19.42;;;3.78;;
47219;SDS011;32961;51.936;4.788;2023-12-22T03:09:40;19.80;;;3.60;;
47219;SDS011;32961;51.936;4.788;2023-12-22T03:12:09;16.77;;;3.78;;
47219;SDS011;32961;51.936;4.788;2023-12-22T03:14:38;16.95;;;3.28;;
47219;SDS011;32961;51.936;4.788;2023-12-22T03:17:06;14.95;;;3.25;;
47219;SDS011;32961;51.936;4.788;2023-12-22T03:19:34;13.23;;;3.22;;
47219;SDS011;32961;51.936;4.788;2023-12-22T03:22:02;18.13;;;3.85;;
47219;SDS011;32961;51.936;4.788;2023-12-22T03:24:30;22.30;;;3.95;;
47219;SDS011;32961;51.936;4.788;2023-12-22T03:26:58;17.35;;;3.50;;
47219;SDS011;32961;51.936;4.788;2023-12-22T03:29:26;23.67;;;4.05;;
47219;SDS011;32961;51.936;4.788;2023-12-22T03:31:57;23.02;;;3.83;;
47219;SDS011;32961;51.936;4.788;2023-12-22T03:34:26;24.10;;;3.17;;
47219;SDS011;32961;51.936;4.788;2023-12-22T03:36:53;21.52;;;3.83;;
47219;SDS011;32961;51.936;4.788;2023-12-22T03:39:21;16.50;;;3.20;;
47219;SDS011;32961;51.936;4.788;2023-12-22T03:41:49;21.58;;;4.63;;
47219;SDS011;32961;51.936;4.788;2023-12-22T03:44:17;26.00;;;3.47;;
47219;SDS011;32961;51.936;4.788;2023-12-22T03:46:48;18.35;;;3.13;;
47219;SDS011;32961;51.936;4.788;2023-12-22T03:49:19;17.77;;;2.90;;
47219;SDS011;32961;51.936;4.788;2023-12-22T03:51:47;20.13;;;4.22;;
47219;SDS011;32961;51.936;4.788;2023-12-22T03:54:15;14.05;;;2.58;;
47219;SDS011;32961;51.936;4.788;2023-12-22T03:56:43;23.73;;;3.22;;
47219;SDS011;32961;51.936;4.788;2023-12-22T03:59:11;22.20;;;4.43;;
47219;SDS011;32961;51.936;4.788;2023-12-22T04:01:39;19.02;;;2.83;;
47219;SDS011;32961;51.936;4.788;2023-12-22T04:04:07;17.55;;;3.17;;
47219;SDS011;32961;51.936;4.788;2023-12-22T04:06:38;16.02;;;3.10;;
47219;SDS011;32961;51.936;4.788;2023-12-22T04:09:06;19.98;;;3.42;;
47219;SDS011;32961;51.936;4.788;2023-12-22T04:11:34;19.60;;;4.15;;
47219;SDS011;32961;51.936;4.788;2023-12-22T04:14:06;14.35;;;2.80;;
47219;SDS011;32961;51.936;4.788;2023-12-22T04:16:35;21.30;;;3.25;;
47219;SDS011;32961;51.936;4.788;2023-12-22T04:19:04;16.88;;;2.80;;
47219;SDS011;32961;51.936;4.788;2023-12-22T04:21:37;16.80;;;3.60;;
47219;SDS011;32961;51.936;4.788;2023-12-22T04:24:06;18.65;;;3.72;;
47219;SDS011;32961;51.936;4.788;2023-12-22T04:26:34;19.70;;;3.42;;
47219;SDS011;32961;51.936;4.788;2023-12-22T04:29:02;13.85;;;2.75;;
47219;SDS011;32961;51.936;4.788;2023-12-22T04:31:29;22.40;;;3.58;;
47219;SDS011;32961;51.936;4.788;2023-12-22T04:33:57;18.95;;;3.88;;
47219;SDS011;32961;51.936;4.788;2023-12-22T04:36:25;14.52;;;2.65;;
47219;SDS011;32961;51.936;4.788;2023-12-22T04:38:54;18.15;;;2.80;;
47219;SDS011;32961;51.936;4.788;2023-12-22T04:41:25;19.17;;;3.05;;
47219;SDS011;32961;51.936;4.788;2023-12-22T04:43:52;16.95;;;3.70;;
47219;SDS011;32961;51.936;4.788;2023-12-22T04:46:20;16.92;;;3.03;;
47219;SDS011;32961;51.936;4.788;2023-12-22T04:48:48;16.38;;;3.58;;
47219;SDS011;32961;51.936;4.788;2023-12-22T04:51:16;14.63;;;2.70;;
47219;SDS011;32961;51.936;4.788;2023-12-22T04:53:44;20.92;;;3.55;;
47219;SDS011;32961;51.936;4.788;2023-12-22T04:56:13;17.02;;;2.70;;
47219;SDS011;32961;51.936;4.788;2023-12-22T04:58:41;17.75;;;2.90;;
47219;SDS011;32961;51.936;4.788;2023-12-22T05:01:09;14.32;;;2.67;;
47219;SDS011;32961;51.936;4.788;2023-12-22T05:03:37;14.90;;;3.75;;
47219;SDS011;32961;51.936;4.788;2023-12-22T05:06:05;20.33;;;3.60;;
47219;SDS011;32961;51.936;4.788;2023-12-22T05:08:33;29.42;;;4.45;;
47219;SDS011;32961;51.936;4.788;2023-12-22T05:11:01;22.40;;;3.15;;
47219;SDS011;32961;51.936;4.788;2023-12-22T05:13:31;17.55;;;2.97;;
47219;SDS011;32961;51.936;4.788;2023-12-22T05:16:00;11.60;;;2.42;;
47219;SDS011;32961;51.936;4.788;2023-12-22T05:18:27;16.52;;;3.13;;
47219;SDS011;32961;51.936;4.788;2023-12-22T05:20:56;18.33;;;4.65;;
47219;SDS011;32961;51.936;4.788;2023-12-22T05:23:24;21.42;;;3.35;;
47219;SDS011;32961;51.936;4.788;2023-12-22T05:25:52;19.67;;;3.65;;
47219;SDS011;32961;51.936;4.788;2023-12-22T05:28:19;25.38;;;4.10;;
47219;SDS011;32961;51.936;4.788;2023-12-22T05:30:49;24.13;;;3.50;;
47219;SDS011;32961;51.936;4.788;2023-12-22T05:33:17;16.63;;;2.92;;
47219;SDS011;32961;51.936;4.788;2023-12-22T05:35:45;21.83;;;3.75;;
47219;SDS011;32961;51.936;4.788;2023-12-22T05:38:13;19.20;;;3.45;;
47219;SDS011;32961;51.936;4.788;2023-12-22T05:40:41;27.73;;;3.53;;
47219;SDS011;32961;51.936;4.788;2023-12-22T05:43:09;21.23;;;3.72;;
47219;SDS011;32961;51.936;4.788;2023-12-22T05:45:36;25.85;;;4.43;;
47219;SDS011;32961;51.936;4.788;2023-12-22T05:48:06;22.13;;;4.28;;
47219;SDS011;32961;51.936;4.788;2023-12-22T05:50:34;28.33;;;5.22;;
47219;SDS011;32961;51.936;4.788;2023-12-22T05:53:03;28.80;;;6.07;;
47219;SDS011;32961;51.936;4.788;2023-12-22T05:55:31;30.55;;;6.75;;
47219;SDS011;32961;51.936;4.788;2023-12-22T05:57:59;22.13;;;5.30;;
47219;SDS011;32961;51.936;4.788;2023-12-22T06:00:27;28.40;;;5.43;;
47219;SDS011;32961;51.936;4.788;2023-12-22T06:02:54;31.23;;;5.45;;
47219;SDS011;32961;51.936;4.788;2023-12-22T06:05:26;28.58;;;5.18;;
47219;SDS011;32961;51.936;4.788;2023-12-22T06:07:54;34.80;;;6.97;;
47219;SDS011;32961;51.936;4.788;2023-12-22T06:10:24;34.28;;;5.68;;
47219;SDS011;32961;51.936;4.788;2023-12-22T06:12:52;31.10;;;5.45;;
47219;SDS011;32961;51.936;4.788;2023-12-22T06:15:20;41.75;;;6.80;;
47219;SDS011;32961;51.936;4.788;2023-12-22T06:17:47;38.97;;;6.82;;
47219;SDS011;32961;51.936;4.788;2023-12-22T06:20:16;42.42;;;6.45;;
47219;SDS011;32961;51.936;4.788;2023-12-22T06:22:45;35.53;;;6.72;;
47219;SDS011;32961;51.936;4.788;2023-12-22T06:25:13;54.38;;;8.95;;
47219;SDS011;32961;51.936;4.788;2023-12-22T06:27:41;42.03;;;7.25;;
47219;SDS011;32961;51.936;4.788;2023-12-22T06:30:09;38.47;;;7.53;;
47219;SDS011;32961;51.936;4.788;2023-12-22T06:32:39;41.25;;;7.47;;
47219;SDS011;32961;51.936;4.788;2023-12-22T06:35:07;40.28;;;6.43;;
47219;SDS011;32961;51.936;4.788;2023-12-22T06:37:42;38.05;;;7.63;;
47219;SDS011;32961;51.936;4.788;2023-12-22T06:40:11;38.67;;;7.82;;
47219;SDS011;32961;51.936;4.788;2023-12-22T06:42:40;45.95;;;8.55;;
47219;SDS011;32961;51.936;4.788;2023-12-22T06:45:08;47.60;;;8.15;;
47219;SDS011;32961;51.936;4.788;2023-12-22T06:47:37;44.60;;;7.07;;
47219;SDS011;32961;51.936;4.788;2023-12-22T06:50:05;32.67;;;6.72;;
47219;SDS011;32961;51.936;4.788;2023-12-22T06:52:34;50.35;;;7.50;;
47219;SDS011;32961;51.936;4.788;2023-12-22T06:55:02;41.05;;;6.95;;
47219;SDS011;32961;51.936;4.788;2023-12-22T06:57:31;37.00;;;6.03;;
47219;SDS011;32961;51.936;4.788;2023-12-22T07:00:01;37.10;;;5.82;;
47219;SDS011;32961;51.936;4.788;2023-12-22T07:02:29;32.92;;;5.57;;
47219;SDS011;32961;51.936;4.788;2023-12-22T07:05:00;45.53;;;7.20;;
47219;SDS011;32961;51.936;4.788;2023-12-22T07:07:31;26.58;;;6.35;;
47219;SDS011;32961;51.936;4.788;2023-12-22T07:10:01;33.80;;;5.45;;
47219;SDS011;32961;51.936;4.788;2023-12-22T07:12:29;35.03;;;7.10;;
47219;SDS011;32961;51.936;4.788;2023-12-22T07:15:00;37.17;;;7.18;;
47219;SDS011;32961;51.936;4.788;2023-12-22T07:17:27;35.58;;;6.07;;
47219;SDS011;32961;51.936;4.788;2023-12-22T07:19:55;39.40;;;6.10;;
47219;SDS011;32961;51.936;4.788;2023-12-22T07:22:24;38.95;;;7.47;;
47219;SDS011;32961;51.936;4.788;2023-12-22T07:24:53;33.15;;;6.72;;
47219;SDS011;32961;51.936;4.788;2023-12-22T07:27:23;36.55;;;6.38;;
47219;SDS011;32961;51.936;4.788;2023-12-22T07:29:56;33.03;;;6.82;;
47219;SDS011;32961;51.936;4.788;2023-12-22T07:32:26;41.70;;;6.45;;
47219;SDS011;32961;51.936;4.788;2023-12-22T07:34:57;33.80;;;5.13;;
47219;SDS011;32961;51.936;4.788;2023-12-22T07:37:27;30.35;;;4.70;;
47219;SDS011;32961;51.936;4.788;2023-12-22T07:39:55;38.13;;;6.00;;
47219;SDS011;32961;51.936;4.788;2023-12-22T07:42:25;22.42;;;4.25;;
47219;SDS011;32961;51.936;4.788;2023-12-22T07:44:54;29.60;;;4.45;;
47219;SDS011;32961;51.936;4.788;2023-12-22T07:47:22;25.77;;;4.30;;
47219;SDS011;32961;51.936;4.788;2023-12-22T07:49:51;25.38;;;5.72;;
47219;SDS011;32961;51.936;4.788;2023-12-22T07:52:19;39.17;;;6.60;;
47219;SDS011;32961;51.936;4.788;2023-12-22T07:54:47;35.22;;;5.22;;
47219;SDS011;32961;51.936;4.788;2023-12-22T07:57:15;38.95;;;6.15;;
47219;SDS011;32961;51.936;4.788;2023-12-22T07:59:43;26.17;;;4.68;;
47219;SDS011;32961;51.936;4.788;2023-12-22T08:02:11;22.52;;;5.45;;
47219;SDS011;32961;51.936;4.788;2023-12-22T08:04:39;28.08;;;4.22;;
47219;SDS011;32961;51.936;4.788;2023-12-22T08:07:09;22.00;;;3.72;;
47219;SDS011;32961;51.936;4.788;2023-12-22T08:09:37;28.20;;;4.25;;
47219;SDS011;32961;51.936;4.788;2023-12-22T08:12:05;22.98;;;3.45;;
47219;SDS011;32961;51.936;4.788;2023-12-22T08:14:34;18.05;;;3.60;;
47219;SDS011;32961;51.936;4.788;2023-12-22T08:17:02;19.50;;;3.20;;
47219;SDS011;32961;51.936;4.788;2023-12-22T08:19:30;23.17;;;3.10;;
47219;SDS011;32961;51.936;4.788;2023-12-22T08:21:58;22.90;;;4.07;;
47219;SDS011;32961;51.936;4.788;2023-12-22T08:24:32;13.25;;;3.25;;
47219;SDS011;32961;51.936;4.788;2023-12-22T08:27:00;27.58;;;4.78;;
47219;SDS011;32961;51.936;4.788;2023-12-22T08:29:28;15.73;;;3.03;;
47219;SDS011;32961;51.936;4.788;2023-12-22T08:31:56;20.38;;;3.30;;
47219;SDS011;32961;51.936;4.788;2023-12-22T08:34:24;15.05;;;3.00;;
47219;SDS011;32961;51.936;4.788;2023-12-22T08:36:52;17.02;;;3.28;;
47219;SDS011;32961;51.936;4.788;2023-12-22T08:39:20;28.38;;;4.88;;
47219;SDS011;32961;51.936;4.788;2023-12-22T08:41:49;12.93;;;2.50;;
47219;SDS011;32961;51.936;4.788;2023-12-22T08:44:17;15.20;;;2.75;;
47219;SDS011;32961;51.936;4.788;2023-12-22T08:46:45;12.32;;;2.53;;
47219;SDS011;32961;51.936;4.788;2023-12-22T08:49:13;14.48;;;2.03;;
47219;SDS011;32961;51.936;4.788;2023-12-22T08:51:41;9.00;;;2.28;;
47219;SDS011;32961;51.936;4.788;2023-12-22T08:54:09;12.13;;;1.70;;
47219;SDS011;32961;51.936;4.788;2023-12-22T08:56:37;13.63;;;1.98;;
47219;SDS011;32961;51.936;4.788;2023-12-22T08:59:06;16.00;;;2.97;;
47219;SDS011;32961;51.936;4.788;2023-12-22T09:01:35;18.55;;;2.30;;
47219;SDS011;32961;51.936;4.788;2023-12-22T09:04:03;12.05;;;2.10;;
47219;SDS011;32961;51.936;4.788;2023-12-22T09:06:34;13.15;;;2.00;;
47219;SDS011;32961;51.936;4.788;2023-12-22T09:09:02;14.38;;;3.10;;
47219;SDS011;32961;51.936;4.788;2023-12-22T09:11:31;9.13;;;2.72;;
47219;SDS011;32961;51.936;4.788;2023-12-22T09:13:58;12.57;;;2.42;;
47219;SDS011;32961;51.936;4.788;2023-12-22T09:16:28;11.18;;;2.05;;
47219;SDS011;32961;51.936;4.788;2023-12-22T09:18:56;14.23;;;2.13;;
47219;SDS011;32961;51.936;4.788;2023-12-22T09:21:24;19.55;;;2.28;;
47219;SDS011;32961;51.936;4.788;2023-12-22T09:23:52;9.23;;;2.00;;
47219;SDS011;32961;51.936;4.788;2023-12-22T09:26:20;10.63;;;1.77;;
47219;SDS011;32961;51.936;4.788;2023-12-22T09:28:50;12.30;;;2.58;;
47219;SDS011;32961;51.936;4.788;2023-12-22T09:31:18;8.48;;;1.85;;
47219;SDS011;32961;51.936;4.788;2023-12-22T09:33:47;8.23;;;1.58;;
47219;SDS011;32961;51.936;4.788;2023-12-22T09:36:15;11.45;;;1.77;;
47219;SDS011;32961;51.936;4.788;2023-12-22T09:38:43;8.07;;;1.70;;
47219;SDS011;32961;51.936;4.788;2023-12-22T09:41:11;8.70;;;2.05;;
47219;SDS011;32961;51.936;4.788;2023-12-22T09:43:39;4.13;;;1.30;;
47219;SDS011;32961;51.936;4.788;2023-12-22T09:46:07;8.13;;;1.65;;
47219;SDS011;32961;51.936;4.788;2023-12-22T09:48:38;9.73;;;1.48;;
47219;SDS011;32961;51.936;4.788;2023-12-22T09:51:08;8.73;;;1.75;;
47219;SDS011;32961;51.936;4.788;2023-12-22T09:53:40;17.08;;;1.90;;
47219;SDS011;32961;51.936;4.788;2023-12-22T09:56:09;9.02;;;1.98;;
47219;SDS011;32961;51.936;4.788;2023-12-22T09:58:37;8.05;;;3.40;;
47219;SDS011;32961;51.936;4.788;2023-12-22T10:01:06;6.28;;;1.35;;
47219;SDS011;32961;51.936;4.788;2023-12-22T10:03:38;9.15;;;1.70;;
47219;SDS011;32961;51.936;4.788;2023-12-22T10:06:10;9.68;;;1.70;;
47219;SDS011;32961;51.936;4.788;2023-12-22T10:08:38;10.20;;;1.70;;
47219;SDS011;32961;51.936;4.788;2023-12-22T10:11:07;9.77;;;1.58;;
47219;SDS011;32961;51.936;4.788;2023-12-22T10:13:36;8.80;;;1.73;;
47219;SDS011;32961;51.936;4.788;2023-12-22T10:16:06;16.60;;;2.20;;
47219;SDS011;32961;51.936;4.788;2023-12-22T10:18:34;11.68;;;2.53;;
47219;SDS011;32961;51.936;4.788;2023-12-22T10:21:02;9.88;;;2.10;;
47219;SDS011;32961;51.936;4.788;2023-12-22T10:23:32;9.98;;;1.85;;
47219;SDS011;32961;51.936;4.788;2023-12-22T10:26:00;8.73;;;1.55;;
47219;SDS011;32961;51.936;4.788;2023-12-22T10:28:28;11.85;;;3.00;;
47219;SDS011;32961;51.936;4.788;2023-12-22T10:30:55;8.70;;;1.45;;
47219;SDS011;32961;51.936;4.788;2023-12-22T10:33:25;6.97;;;1.60;;
47219;SDS011;32961;51.936;4.788;2023-12-22T10:35:53;12.30;;;2.30;;
47219;SDS011;32961;51.936;4.788;2023-12-22T10:38:23;10.68;;;1.77;;
47219;SDS011;32961;51.936;4.788;2023-12-22T10:40:52;7.35;;;1.58;;
47219;SDS011;32961;51.936;4.788;2023-12-22T10:43:28;9.02;;;1.38;;
47219;SDS011;32961;51.936;4.788;2023-12-22T10:45:56;6.07;;;1.25;;
47219;SDS011;32961;51.936;4.788;2023-12-22T10:48:24;8.05;;;1.55;;
47219;SDS011;32961;51.936;4.788;2023-12-22T10:50:52;5.93;;;1.67;;
47219;SDS011;32961;51.936;4.788;2023-12-22T10:53:23;11.10;;;1.85;;
47219;SDS011;32961;51.936;4.788;2023-12-22T10:55:52;13.52;;;3.75;;
47219;SDS011;32961;51.936;4.788;2023-12-22T10:58:22;7.40;;;1.63;;
47219;SDS011;32961;51.936;4.788;2023-12-22T11:00:50;6.25;;;1.30;;
47219;SDS011;32961;51.936;4.788;2023-12-22T11:03:19;7.30;;;1.95;;
47219;SDS011;32961;51.936;4.788;2023-12-22T11:05:51;13.82;;;2.75;;
47219;SDS011;32961;51.936;4.788;2023-12-22T11:08:22;10.40;;;2.00;;
47219;SDS011;32961;51.936;4.788;2023-12-22T11:10:58;9.27;;;1.42;;
47219;SDS011;32961;51.936;4.788;2023-12-22T11:13:33;11.07;;;1.65;;
47219;SDS011;32961;51.936;4.788;2023-12-22T11:16:02;10.30;;;1.67;;
47219;SDS011;32961;51.936;4.788;2023-12-22T11:18:31;13.90;;;3.47;;
47219;SDS011;32961;51.936;4.788;2023-12-22T11:21:03;7.90;;;1.60;;
47219;SDS011;32961;51.936;4.788;2023-12-22T11:23:33;15.20;;;2.20;;
47219;SDS011;32961;51.936;4.788;2023-12-22T11:26:04;10.48;;;2.55;;
47219;SDS011;32961;51.936;4.788;2023-12-22T11:28:34;12.90;;;2.38;;
47219;SDS011;32961;51.936;4.788;2023-12-22T11:31:03;12.10;;;1.90;;
47219;SDS011;32961;51.936;4.788;2023-12-22T11:33:34;8.45;;;2.00;;
47219;SDS011;32961;51.936;4.788;2023-12-22T11:36:04;11.38;;;2.58;;
47219;SDS011;32961;51.936;4.788;2023-12-22T11:38:37;10.13;;;1.77;;
47219;SDS011;32961;51.936;4.788;2023-12-22T11:41:06;8.30;;;2.10;;
47219;SDS011;32961;51.936;4.788;2023-12-22T11:43:38;11.70;;;1.97;;
47219;SDS011;32961;51.936;4.788;2023-12-22T11:46:06;8.45;;;1.77;;
47219;SDS011;32961;51.936;4.788;2023-12-22T11:48:37;13.50;;;3.28;;
47219;SDS011;32961;51.936;4.788;2023-12-22T11:51:11;10.70;;;2.58;;
47219;SDS011;32961;51.936;4.788;2023-12-22T11:53:40;12.82;;;2.70;;
47219;SDS011;32961;51.936;4.788;2023-12-22T11:56:10;11.60;;;2.13;;
47219;SDS011;32961;51.936;4.788;2023-12-22T11:58:39;6.93;;;1.73;;
47219;SDS011;32961;51.936;4.788;2023-12-22T12:01:18;11.57;;;2.17;;
47219;SDS011;32961;51.936;4.788;2023-12-22T12:03:48;16.50;;;2.30;;
47219;SDS011;32961;51.936;4.788;2023-12-22T12:06:22;12.52;;;2.20;;
47219;SDS011;32961;51.936;4.788;2023-12-22T12:08:59;15.95;;;1.98;;
47219;SDS011;32961;51.936;4.788;2023-12-22T12:14:40;11.52;;;2.42;;
47219;SDS011;32961;51.936;4.788;2023-12-22T12:17:10;12.75;;;2.33;;
47219;SDS011;32961;51.936;4.788;2023-12-22T12:19:38;10.52;;;1.83;;
47219;SDS011;32961;51.936;4.788;2023-12-22T12:22:09;10.75;;;2.03;;
47219;SDS011;32961;51.936;4.788;2023-12-22T12:24:40;9.30;;;1.92;;
47219;SDS011;32961;51.936;4.788;2023-12-22T12:27:10;11.98;;;2.10;;
47219;SDS011;32961;51.936;4.788;2023-12-22T12:29:39;10.63;;;2.15;;
47219;SDS011;32961;51.936;4.788;2023-12-22T12:32:07;8.30;;;2.10;;
47219;SDS011;32961;51.936;4.788;2023-12-22T12:34:35;10.65;;;1.77;;
47219;SDS011;32961;51.936;4.788;2023-12-22T12:37:04;8.82;;;2.45;;
47219;SDS011;32961;51.936;4.788;2023-12-22T12:39:34;12.13;;;3.35;;
47219;SDS011;32961;51.936;4.788;2023-12-22T12:42:03;10.05;;;3.30;;
47219;SDS011;32961;51.936;4.788;2023-12-22T12:44:36;13.23;;;2.10;;
47219;SDS011;32961;51.936;4.788;2023-12-22T12:47:14;9.35;;;1.42;;
47219;SDS011;32961;51.936;4.788;2023-12-22T12:49:43;11.80;;;1.80;;
47219;SDS011;32961;51.936;4.788;2023-12-22T12:52:12;14.77;;;2.13;;
47219;SDS011;32961;51.936;4.788;2023-12-22T12:54:40;13.02;;;2.22;;
47219;SDS011;32961;51.936;4.788;2023-12-22T12:57:13;7.28;;;1.63;;
47219;SDS011;32961;51.936;4.788;2023-12-22T12:59:45;12.97;;;2.27;;
47219;SDS011;32961;51.936;4.788;2023-12-22T13:02:14;12.65;;;2.53;;
47219;SDS011;32961;51.936;4.788;2023-12-22T13:04:43;14.23;;;2.10;;
47219;SDS011;32961;51.936;4.788;2023-12-22T13:07:13;14.80;;;4.28;;
47219;SDS011;32961;51.936;4.788;2023-12-22T13:09:41;14.75;;;2.70;;
47219;SDS011;32961;51.936;4.788;2023-12-22T13:12:09;13.02;;;2.80;;
47219;SDS011;32961;51.936;4.788;2023-12-22T13:14:37;13.32;;;2.20;;
47219;SDS011;32961;51.936;4.788;2023-12-22T13:17:06;12.10;;;2.08;;
47219;SDS011;32961;51.936;4.788;2023-12-22T13:19:36;12.50;;;2.72;;
47219;SDS011;32961;51.936;4.788;2023-12-22T13:22:05;14.05;;;2.58;;
47219;SDS011;32961;51.936;4.788;2023-12-22T13:24:33;19.13;;;4.05;;
47219;SDS011;32961;51.936;4.788;2023-12-22T13:27:02;12.80;;;2.72;;
47219;SDS011;32961;51.936;4.788;2023-12-22T13:29:42;10.15;;;2.15;;
47219;SDS011;32961;51.936;4.788;2023-12-22T13:32:16;13.25;;;2.95;;
47219;SDS011;32961;51.936;4.788;2023-12-22T13:34:48;17.30;;;2.75;;
47219;SDS011;32961;51.936;4.788;2023-12-22T13:37:17;11.65;;;2.20;;
47219;SDS011;32961;51.936;4.788;2023-12-22T13:39:46;16.98;;;3.05;;
47219;SDS011;32961;51.936;4.788;2023-12-22T13:42:15;18.92;;;3.85;;
47219;SDS011;32961;51.936;4.788;2023-12-22T13:47:21;10.38;;;2.33;;
47219;SDS011;32961;51.936;4.788;2023-12-22T13:52:24;20.00;;;3.35;;
47219;SDS011;32961;51.936;4.788;2023-12-22T13:54:53;15.27;;;3.03;;
47219;SDS011;32961;51.936;4.788;2023-12-22T13:57:23;10.57;;;2.80;;
47219;SDS011;32961;51.936;4.788;2023-12-22T13:59:52;15.13;;;3.00;;
47219;SDS011;32961;51.936;4.788;2023-12-22T14:02:23;13.32;;;2.45;;
47219;SDS011;32961;51.936;4.788;2023-12-22T14:04:51;16.75;;;3.42;;
47219;SDS011;32961;51.936;4.788;2023-12-22T14:07:19;15.45;;;3.47;;
47219;SDS011;32961;51.936;4.788;2023-12-22T14:09:47;14.75;;;2.72;;
47219;SDS011;32961;51.936;4.788;2023-12-22T14:12:15;12.13;;;2.38;;
47219;SDS011;32961;51.936;4.788;2023-12-22T14:14:54;19.40;;;3.05;;
47219;SDS011;32961;51.936;4.788;2023-12-22T14:17:23;17.30;;;2.95;;
47219;SDS011;32961;51.936;4.788;2023-12-22T14:19:54;37.55;;;5.90;;
47219;SDS011;32961;51.936;4.788;2023-12-22T14:22:22;18.40;;;2.95;;
47219;SDS011;32961;51.936;4.788;2023-12-22T14:24:50;18.30;;;4.43;;
47219;SDS011;32961;51.936;4.788;2023-12-22T14:27:17;20.08;;;3.45;;
47219;SDS011;32961;51.936;4.788;2023-12-22T14:29:45;19.20;;;3.85;;
47219;SDS011;32961;51.936;4.788;2023-12-22T14:32:13;12.68;;;3.17;;
47219;SDS011;32961;51.936;4.788;2023-12-22T14:34:46;12.70;;;3.17;;
47219;SDS011;32961;51.936;4.788;2023-12-22T14:37:14;17.98;;;2.60;;
47219;SDS011;32961;51.936;4.788;2023-12-22T14:39:44;17.63;;;2.65;;
47219;SDS011;32961;51.936;4.788;2023-12-22T14:42:12;13.85;;;3.17;;
47219;SDS011;32961;51.936;4.788;2023-12-22T14:44:40;13.45;;;2.72;;
47219;SDS011;32961;51.936;4.788;2023-12-22T14:47:08;10.85;;;2.50;;
47219;SDS011;32961;51.936;4.788;2023-12-22T14:49:39;19.13;;;3.45;;
47219;SDS011;32961;51.936;4.788;2023-12-22T14:52:09;11.32;;;2.40;;
47219;SDS011;32961;51.936;4.788;2023-12-22T14:54:36;11.27;;;2.75;;